Time;durP1;ratioP1;P1;durP2;ratioP2;P2;SDS_P1;SDS_P2;PMS_P1;PMS_P2;Temp;Humidity;BMP_temperature;BMP_pressure;BME280_temperature;BME280_humidity;BME280_pressure;Samples;Min_cycle;Max_cycle;Signal;HPM_P1;HPM_P2
2023/06/28 00:01:24;;;;;;;6.33;2.40;;;16.70;92.40;;;16.27;64.14;101116.03;5054965;28;20675;-78
2023/06/28 00:03:58;;;;;;;7.97;2.60;;;16.50;93.20;;;16.33;63.70;101117.16;5055704;28;20230;-78
2023/06/28 00:06:32;;;;;;;5.73;2.20;;;16.70;92.30;;;16.30;64.42;101112.94;5055257;28;20190;-78
2023/06/28 00:09:05;;;;;;;4.33;2.00;;;16.60;92.50;;;16.32;64.34;101121.72;5055204;28;20281;-78
2023/06/28 00:11:38;;;;;;;5.63;2.10;;;16.70;92.60;;;16.30;63.83;101129.16;5054862;28;20313;-78
2023/06/28 00:14:12;;;;;;;7.67;2.43;;;16.60;92.40;;;16.23;64.52;101123.69;5055446;28;20228;-78
2023/06/28 00:16:45;;;;;;;8.20;2.17;;;16.50;92.40;;;16.18;64.70;101136.09;5054741;28;20202;-78
2023/06/28 00:19:26;;;;;;;5.07;2.20;;;16.50;92.80;;;16.17;64.68;101129.84;5054998;28;20339;-77
2023/06/28 00:22:03;;;;;;;5.37;2.23;;;16.40;92.80;;;16.11;64.93;101136.00;5054971;28;20186;-77
2023/06/28 00:24:36;;;;;;;6.50;2.10;;;16.50;92.90;;;16.05;65.10;101136.75;5054865;28;20313;-77
2023/06/28 00:27:11;;;;;;;7.07;2.50;;;16.30;93.00;;;16.06;65.09;101132.19;5054858;28;20217;-77
2023/06/28 00:29:44;;;;;;;4.13;2.30;;;16.40;93.00;;;16.01;64.92;101137.28;5054791;28;20220;-77
2023/06/28 00:32:18;;;;;;;5.77;2.40;;;16.40;93.10;;;16.03;65.52;101137.94;5055019;28;20242;-77
2023/06/28 00:34:51;;;;;;;4.17;2.30;;;16.40;93.30;;;15.92;66.00;101133.84;5054344;28;20324;-77
2023/06/28 00:37:24;;;;;;;6.93;2.53;;;16.20;93.50;;;15.91;66.04;101134.03;5054645;28;20193;-77
2023/06/28 00:39:59;;;;;;;7.00;2.83;;;16.20;93.40;;;15.85;66.71;101140.19;5054042;28;20228;-77
2023/06/28 00:42:32;;;;;;;5.70;2.27;;;16.10;93.70;;;15.85;66.07;101140.19;5054591;28;20187;-77
2023/06/28 00:45:06;;;;;;;7.13;2.37;;;16.10;93.60;;;15.75;67.14;101131.50;5054129;28;20715;-77
2023/06/28 00:47:39;;;;;;;7.63;2.50;;;16.00;94.20;;;15.62;68.08;101130.25;5054429;28;20293;-77
2023/06/28 00:50:14;;;;;;;6.50;2.30;;;15.90;94.50;;;15.61;68.16;101134.00;5054521;28;20196;-77
2023/06/28 00:52:48;;;;;;;5.77;2.20;;;15.90;94.50;;;15.63;67.36;101137.34;5054420;28;20218;-77
2023/06/28 00:55:21;;;;;;;8.60;2.50;;;16.00;94.50;;;15.66;67.69;101138.84;5054026;28;20723;-77
2023/06/28 00:57:55;;;;;;;5.87;2.40;;;16.00;94.40;;;15.63;68.56;101141.91;5054302;28;20281;-77
2023/06/28 01:00:28;;;;;;;9.07;2.90;;;16.00;94.80;;;15.58;68.73;101144.34;5054255;28;20214;-77
2023/06/28 01:03:02;;;;;;;8.53;3.13;;;15.90;95.00;;;15.60;68.34;101139.56;5053746;28;20706;-77
2023/06/28 01:05:36;;;;;;;5.27;2.63;;;15.90;94.90;;;15.41;69.24;101143.59;5054107;28;20189;-77
2023/06/28 01:08:11;;;;;;;5.90;2.43;;;15.80;95.20;;;15.41;69.17;101143.59;5053803;28;20570;-77
2023/06/28 01:10:45;;;;;;;5.93;2.83;;;15.80;95.50;;;15.46;69.21;101141.19;5054034;28;20190;-77
2023/06/28 01:13:20;;;;;;;7.07;3.27;;;15.80;95.50;;;15.36;70.08;101135.22;5053840;28;20226;-77
2023/06/28 01:15:54;;;;;;;5.47;2.33;;;15.70;95.90;;;15.42;69.99;101139.03;5053557;28;20695;-77
2023/06/28 01:18:27;;;;;;;10.77;2.87;;;15.90;95.80;;;15.45;69.72;101128.72;5053823;28;20609;-77
2023/06/28 01:21:02;;;;;;;6.40;2.70;;;15.80;95.90;;;15.38;69.59;101143.09;5053911;28;20537;-77
2023/06/28 01:23:35;;;;;;;6.93;2.30;;;15.70;95.90;;;15.41;69.78;101135.47;5053421;28;20818;-77
2023/06/28 01:26:10;;;;;;;8.43;2.87;;;15.80;95.90;;;15.44;69.87;101143.25;5053758;28;20244;-76
2023/06/28 01:28:44;;;;;;;5.73;2.57;;;15.80;95.80;;;15.43;69.90;101141.56;5053728;28;20217;-77
2023/06/28 01:31:17;;;;;;;7.23;2.80;;;15.80;96.10;;;15.46;69.57;101146.59;5053671;28;20281;-77
2023/06/28 01:33:51;;;;;;;10.67;2.80;;;16.10;95.70;;;15.42;70.01;101145.25;5053252;28;20230;-77
2023/06/28 01:36:24;;;;;;;6.90;2.83;;;15.80;95.50;;;15.44;68.73;101145.94;5053283;28;20651;-78
2023/06/28 01:38:59;;;;;;;5.23;2.80;;;15.80;95.60;;;15.46;68.97;101151.97;5053609;28;20233;-77
2023/06/28 01:41:34;;;;;;;6.13;2.53;;;15.90;95.40;;;15.37;69.56;101150.38;5053644;28;20198;-77
2023/06/28 01:44:08;;;;;;;5.33;2.70;;;15.80;95.60;;;15.36;69.62;101151.41;5053444;28;20316;-77
2023/06/28 01:46:44;;;;;;;5.43;2.40;;;15.70;95.70;;;15.43;70.03;101152.34;5053471;28;20213;-77
2023/06/28 01:49:17;;;;;;;6.13;2.77;;;15.80;95.80;;;15.39;70.25;101153.72;5053339;28;20251;-77
2023/06/28 01:51:51;;;;;;;8.30;3.00;;;15.80;96.10;;;15.33;70.01;101150.91;5052456;28;20226;-77
2023/06/28 01:54:24;;;;;;;7.57;3.47;;;15.70;96.10;;;15.13;71.41;101155.97;5053259;28;20264;-77
2023/06/28 01:57:03;;;;;;;7.43;2.87;;;15.60;96.70;;;15.19;70.82;101161.47;5053033;28;20668;-78
2023/06/28 01:59:36;;;;;;;8.10;3.23;;;15.50;96.60;;;15.10;71.17;101162.53;5053352;28;20289;-78
2023/06/28 02:02:12;;;;;;;6.23;3.07;;;15.50;97.00;;;15.15;71.33;101170.09;5053119;28;20228;-78
2023/06/28 02:04:46;;;;;;;6.67;3.00;;;15.50;97.00;;;15.17;70.64;101162.69;5053276;28;20316;-78
2023/06/28 02:07:20;;;;;;;5.63;3.20;;;15.70;96.60;;;15.18;71.44;101164.34;5053270;28;20185;-78
2023/06/28 02:09:53;;;;;;;9.30;3.40;;;15.60;96.80;;;15.08;72.35;101159.19;5053048;28;20333;-78
2023/06/28 02:12:26;;;;;;;7.17;3.00;;;15.50;97.20;;;15.07;71.62;101162.06;5053178;28;20214;-78
2023/06/28 02:15:03;;;;;;;8.40;2.90;;;15.50;97.10;;;15.05;71.73;101158.72;5052942;28;20803;-78
2023/06/28 02:17:37;;;;;;;7.47;3.40;;;15.40;97.30;;;15.02;72.35;101164.47;5052856;28;20190;-78
2023/06/28 02:20:14;;;;;;;6.93;3.40;;;15.40;97.60;;;14.97;72.09;101172.22;5053694;28;20201;-78
2023/06/28 02:22:47;;;;;;;9.07;3.30;;;15.30;97.40;;;15.01;72.22;101162.78;5053211;28;20214;-78
2023/06/28 02:25:20;;;;;;;12.07;3.70;;;15.40;97.50;;;14.97;72.57;101156.06;5052793;28;20257;-78
2023/06/28 02:27:53;;;;;;;5.97;3.20;;;15.40;97.90;;;14.87;73.28;101160.84;5053164;28;20218;-78
2023/06/28 02:30:27;;;;;;;7.47;3.30;;;15.30;98.30;;;14.81;73.30;101150.78;5053039;28;20229;-78
2023/06/28 02:33:01;;;;;;;7.13;3.43;;;15.20;98.40;;;14.71;74.19;101156.41;5052726;28;20206;-78
2023/06/28 02:35:34;;;;;;;6.83;3.37;;;15.20;98.50;;;14.76;73.33;101147.78;5053079;28;20229;-78
2023/06/28 02:38:07;;;;;;;5.87;3.43;;;15.10;98.70;;;14.77;74.19;101154.84;5053069;28;20190;-78
2023/06/28 02:40:41;;;;;;;8.03;3.10;;;15.20;98.80;;;14.65;74.87;101157.97;5053098;28;20190;-78
2023/06/28 02:43:15;;;;;;;10.23;4.00;;;15.10;99.00;;;14.67;74.69;101164.00;5052553;28;20190;-78
2023/06/28 02:45:48;;;;;;;6.60;3.37;;;15.10;99.20;;;14.59;74.78;101158.63;5052668;28;20222;-78
2023/06/28 02:48:22;;;;;;;8.53;3.97;;;14.90;99.50;;;14.48;75.82;101153.66;5052931;28;20623;-78
2023/06/28 02:50:55;;;;;;;7.73;3.50;;;15.00;99.70;;;14.60;74.59;101156.78;5052864;28;20230;-78
2023/06/28 02:53:28;;;;;;;7.63;3.73;;;15.00;99.50;;;14.58;74.37;101167.75;5052384;28;20763;-78
2023/06/28 02:56:02;;;;;;;8.80;3.40;;;15.00;99.10;;;14.54;75.44;101170.97;5052854;28;20281;-77
2023/06/28 02:58:35;;;;;;;8.87;3.17;;;15.00;99.30;;;14.60;73.89;101164.88;5052684;28;20237;-78
2023/06/28 03:01:09;;;;;;;7.43;3.47;;;15.00;99.70;;;14.58;75.53;101167.75;5052686;28;20599;-77
2023/06/28 03:03:43;;;;;;;7.70;3.50;;;15.00;99.70;;;14.54;75.00;101168.28;5055540;28;20235;-77
2023/06/28 03:06:17;;;;;;;9.83;3.13;;;15.00;99.60;;;14.39;76.33;101157.38;5056354;28;20195;-77
2023/06/28 03:08:51;;;;;;;8.30;3.30;;;14.80;99.90;;;14.46;75.26;101166.44;5056330;28;20186;-77
2023/06/28 03:11:24;;;;;;;7.60;3.10;;;14.90;99.90;;;14.41;75.52;101162.63;5056035;28;20625;-77
2023/06/28 03:13:57;;;;;;;7.80;3.23;;;14.80;99.90;;;14.41;75.98;101160.75;5055852;28;20327;-77
2023/06/28 03:16:31;;;;;;;8.47;3.07;;;14.80;99.90;;;14.35;75.76;101169.53;5056215;28;20237;-77
2023/06/28 03:19:05;;;;;;;11.17;3.47;;;14.90;99.90;;;14.21;76.76;101171.06;5055991;28;20225;-77
2023/06/28 03:21:39;;;;;;;8.40;3.30;;;14.70;99.90;;;14.24;77.16;101167.19;5056375;28;20281;-77
2023/06/28 03:24:12;;;;;;;8.27;3.73;;;14.70;99.90;;;14.24;76.76;101164.50;5056067;28;20260;-77
2023/06/28 03:26:45;;;;;;;10.50;3.83;;;14.70;99.90;;;14.16;77.40;101175.28;5056198;28;20191;-77
2023/06/28 03:29:19;;;;;;;12.00;3.70;;;14.60;99.90;;;14.16;77.26;101172.59;5056065;28;20190;-78
2023/06/28 03:31:54;;;;;;;7.60;3.50;;;14.60;99.90;;;14.07;77.85;101168.25;5056048;28;20290;-78
2023/06/28 03:34:28;;;;;;;4.70;3.13;;;14.50;99.90;;;14.08;77.18;101168.06;5055457;28;20253;-78
2023/06/28 03:37:02;;;;;;;5.93;3.23;;;14.50;99.90;;;14.08;77.10;101175.31;5055848;28;20214;-78
2023/06/28 03:39:38;;;;;;;8.27;3.27;;;14.60;99.90;;;14.04;77.53;101174.00;5056037;28;20190;-77
2023/06/28 03:42:12;;;;;;;8.70;3.97;;;14.50;99.90;;;14.12;77.63;101171.25;5056093;28;20276;-77
2023/06/28 03:44:45;;;;;;;7.20;3.40;;;14.60;99.90;;;14.17;76.78;101166.22;5056053;28;20222;-77
2023/06/28 03:47:18;;;;;;;6.70;3.43;;;14.70;99.90;;;14.13;77.17;101168.41;5056351;28;20285;-77
2023/06/28 03:49:52;;;;;;;7.43;3.53;;;14.70;99.90;;;14.17;76.81;101171.59;5055920;28;20245;-77
2023/06/28 03:52:26;;;;;;;8.63;3.97;;;14.60;99.90;;;14.08;78.36;101169.91;5056139;28;20285;-77
2023/06/28 03:54:59;;;;;;;10.20;3.57;;;14.50;99.90;;;14.12;77.70;101171.25;5055426;28;20320;-77
2023/06/28 03:57:32;;;;;;;15.10;4.23;;;14.60;99.90;;;14.09;78.02;101163.53;5055481;28;20214;-78
2023/06/28 04:00:10;;;;;;;9.93;4.00;;;14.90;99.90;;;14.17;77.13;101166.22;5055462;28;20218;-78
2023/06/28 04:02:44;;;;;;;8.10;3.60;;;14.70;99.90;;;14.14;77.74;101166.56;5055605;28;20248;-77
2023/06/28 04:05:18;;;;;;;5.33;3.27;;;14.70;99.90;;;14.16;77.77;101170.75;5055217;28;20317;-77
2023/06/28 04:07:57;;;;;;;7.10;3.77;;;14.60;99.90;;;14.14;78.25;101171.94;5054922;28;20285;-77
2023/06/28 04:10:31;;;;;;;9.57;3.23;;;14.60;99.90;;;14.19;78.01;101172.25;5054930;28;20707;-77
2023/06/28 04:13:04;;;;;;;8.33;3.80;;;14.70;99.90;;;14.19;78.55;101173.09;5054937;28;20273;-77
2023/06/28 04:15:38;;;;;;;9.50;3.70;;;14.70;99.90;;;14.15;77.91;101165.53;5053907;28;20648;-77
2023/06/28 04:18:11;;;;;;;8.13;3.87;;;14.70;99.90;;;14.11;78.54;101169.56;5055010;28;20277;-77
2023/06/28 04:20:44;;;;;;;8.17;3.97;;;14.60;99.90;;;14.12;79.25;101172.09;5055056;28;20190;-77
2023/06/28 04:23:18;;;;;;;9.77;4.20;;;14.70;99.90;;;14.13;79.27;101175.63;5054847;28;20285;-78
2023/06/28 04:25:53;;;;;;;9.83;4.40;;;14.70;99.90;;;14.12;79.27;101173.94;5054827;28;20717;-78
2023/06/28 04:28:27;;;;;;;13.33;4.10;;;14.70;99.90;;;14.17;78.91;101171.59;5054987;28;20197;-77
2023/06/28 04:31:00;;;;;;;12.27;3.97;;;14.70;99.90;;;14.22;77.86;101177.28;5054957;28;20286;-77
2023/06/28 04:33:35;;;;;;;7.50;3.77;;;14.80;99.90;;;14.23;78.49;101169.03;5054461;28;20363;-78
2023/06/28 04:36:11;;;;;;;10.30;4.07;;;14.70;99.90;;;14.27;79.50;101176.78;5054804;28;20228;-78
2023/06/28 04:38:45;;;;;;;9.83;3.50;;;14.80;99.90;;;14.28;78.73;101170.38;5054878;28;20259;-78
2023/06/28 04:41:18;;;;;;;10.70;4.30;;;14.80;99.90;;;14.23;79.81;101182.50;5054277;28;20638;-78
2023/06/28 04:43:54;;;;;;;9.73;4.33;;;14.90;99.90;;;14.23;79.81;101171.75;5054518;28;20222;-77
2023/06/28 04:46:28;;;;;;;8.73;4.50;;;14.70;99.90;;;14.22;79.64;101172.75;5054507;28;20194;-77
2023/06/28 04:49:02;;;;;;;9.47;4.10;;;14.80;99.90;;;14.22;80.49;101175.44;5054436;28;20284;-77
2023/06/28 04:51:37;;;;;;;9.67;4.77;;;14.80;99.90;;;14.16;80.51;101173.44;5054471;28;20194;-77
2023/06/28 04:54:10;;;;;;;10.07;4.53;;;14.80;99.90;;;14.18;80.67;101167.88;5054012;28;20270;-78
2023/06/28 04:56:45;;;;;;;11.23;4.17;;;14.80;99.90;;;14.26;79.42;101178.63;5054280;28;20197;-78
2023/06/28 04:59:18;;;;;;;8.87;4.17;;;14.80;99.90;;;14.27;80.05;101172.22;5054295;28;20243;-78
2023/06/28 05:01:51;;;;;;;12.00;4.60;;;14.80;99.90;;;14.32;79.37;101172.53;5054428;28;20190;-78
2023/06/28 05:04:25;;;;;;;8.20;4.47;;;14.90;99.90;;;14.32;80.56;101175.22;5054195;28;20268;-78
2023/06/28 05:06:58;;;;;;;8.00;4.37;;;14.90;99.90;;;14.33;80.55;101171.53;5054239;28;20191;-78
2023/06/28 05:09:36;;;;;;;8.60;4.13;;;15.00;99.90;;;14.34;80.53;101175.94;5053830;28;20702;-78
2023/06/28 05:12:10;;;;;;;9.53;4.60;;;15.10;99.90;;;14.33;80.71;101171.53;5054014;28;20648;-78
2023/06/28 05:14:44;;;;;;;11.00;4.47;;;15.00;99.90;;;14.38;80.89;101166.50;5053683;28;20269;-77
2023/06/28 05:17:17;;;;;;;10.30;4.20;;;15.00;99.90;;;14.42;80.50;101162.41;5053918;28;20198;-78
2023/06/28 05:19:50;;;;;;;8.50;4.50;;;15.00;99.90;;;14.44;80.80;101167.66;5054536;28;20628;-78
2023/06/28 05:22:26;;;;;;;11.27;4.50;;;15.00;99.90;;;14.47;81.08;101165.44;5053573;28;20648;-78
2023/06/28 05:24:59;;;;;;;10.57;4.07;;;15.10;99.90;;;14.52;80.94;101173.81;5053673;28;20226;-77
2023/06/28 05:27:32;;;;;;;13.37;4.60;;;15.10;99.90;;;14.56;81.08;101163.53;5053719;28;20251;-77
2023/06/28 05:30:07;;;;;;;8.57;4.30;;;15.20;99.90;;;14.59;80.98;101172.13;5053726;28;20282;-77
2023/06/28 05:32:41;;;;;;;8.03;4.50;;;15.20;99.90;;;14.63;81.33;101170.75;5053684;28;20186;-77
2023/06/28 05:35:14;;;;;;;12.77;4.93;;;15.30;99.90;;;14.65;80.85;101168.75;5053124;28;20233;-77
2023/06/28 05:37:47;;;;;;;9.13;4.67;;;15.30;99.90;;;14.67;80.75;101169.38;5053525;28;20664;-77
2023/06/28 05:40:21;;;;;;;10.43;4.70;;;15.30;99.90;;;14.71;81.01;101168.03;5053667;28;20237;-77
2023/06/28 05:42:54;;;;;;;13.20;4.17;;;15.30;99.90;;;14.80;81.35;101167.97;5053549;28;20285;-78
2023/06/28 05:45:28;;;;;;;8.40;5.00;;;15.40;99.90;;;14.85;80.82;101173.66;5053462;28;20260;-78
2023/06/28 05:48:03;;;;;;;8.10;4.70;;;15.50;99.90;;;14.88;80.82;101174.16;5053416;28;20195;-78
2023/06/28 05:50:36;;;;;;;12.83;4.83;;;15.50;99.90;;;14.93;81.09;101177.16;5053556;28;20194;-78
2023/06/28 05:53:13;;;;;;;9.10;5.07;;;15.60;99.90;;;14.99;80.43;101172.91;5053303;28;20190;-78
2023/06/28 05:55:46;;;;;;;9.93;5.20;;;15.70;99.90;;;15.03;80.30;101172.38;5053381;28;20300;-78
2023/06/28 05:58:20;;;;;;;16.03;5.60;;;15.70;99.90;;;15.11;80.60;101179.56;5053153;28;20313;-78
2023/06/28 06:00:53;;;;;;;12.00;5.00;;;15.70;99.90;;;15.15;80.20;101167.41;5053331;28;20293;-78
2023/06/28 06:03:26;;;;;;;10.57;4.60;;;15.80;99.90;;;15.18;80.06;101170.56;5053138;28;20316;-62
2023/06/28 06:06:00;;;;;;;12.80;5.10;;;15.80;99.90;;;15.18;79.83;101169.75;5053333;28;20598;-78
2023/06/28 06:08:34;;;;;;;10.67;4.80;;;15.90;99.90;;;15.20;78.79;101170.41;5053283;28;20281;-75
2023/06/28 06:11:07;;;;;;;9.87;4.37;;;15.80;99.90;;;15.21;78.94;101170.22;5053238;28;20190;-74
2023/06/28 06:13:41;;;;;;;10.10;4.60;;;15.80;99.90;;;15.24;78.86;101158.22;5053130;28;20272;-74
2023/06/28 06:16:14;;;;;;;9.27;5.07;;;15.90;99.90;;;15.26;79.14;101161.59;5053103;28;20210;-74
2023/06/28 06:18:47;;;;;;;11.80;6.30;;;15.90;99.90;;;15.29;79.13;101160.38;5053125;28;20237;-74
2023/06/28 06:21:20;;;;;;;27.77;22.53;;;15.90;99.90;;;15.33;79.87;101159.84;5053068;28;20194;-74
2023/06/28 06:23:54;;;;;;;11.07;5.17;;;16.00;99.90;;;15.42;79.44;101161.47;5052712;28;20232;-74
2023/06/28 06:26:27;;;;;;;9.67;5.07;;;16.00;99.90;;;15.48;78.73;101162.59;5053101;28;20277;-74
2023/06/28 06:29:01;;;;;;;12.80;5.57;;;16.10;99.90;;;15.53;78.65;101155.66;5052767;28;20192;-74
2023/06/28 06:31:35;;;;;;;10.53;4.33;;;16.20;99.90;;;15.57;79.08;101159.69;5053099;28;20225;-74
2023/06/28 06:34:09;;;;;;;7.63;4.93;;;16.40;99.90;;;15.61;78.81;101170.94;5053132;28;20715;-74
2023/06/28 06:36:43;;;;;;;9.57;4.47;;;16.30;99.90;;;15.65;78.19;101164.97;5053373;28;20244;-74
2023/06/28 06:39:16;;;;;;;6.73;4.23;;;16.30;99.90;;;15.65;77.90;101172.28;5057318;28;20315;-74
2023/06/28 06:41:49;;;;;;;11.50;4.93;;;16.50;99.90;;;15.74;77.92;101171.16;5056897;28;20660;-74
2023/06/28 06:44:23;;;;;;;10.43;4.73;;;16.40;99.90;;;15.75;77.90;101169.31;5056990;28;20304;-74
2023/06/28 06:46:56;;;;;;;9.17;3.93;;;16.40;99.90;;;15.77;77.32;101176.19;5056973;28;20202;-74
2023/06/28 06:49:30;;;;;;;20.10;12.57;;;16.30;99.90;;;15.82;78.11;101184.59;5056779;28;20190;-74
2023/06/28 06:52:03;;;;;;;9.53;5.50;;;16.50;99.90;;;15.89;77.44;101179.28;5056552;28;20632;-74
2023/06/28 06:54:37;;;;;;;14.20;4.97;;;16.50;99.90;;;15.96;76.41;101181.06;5056332;28;20781;-74
2023/06/28 06:57:11;;;;;;;11.83;4.70;;;16.60;99.90;;;16.03;75.83;101181.16;5056676;28;20190;-74
2023/06/28 06:59:44;;;;;;;9.13;4.07;;;16.70;99.90;;;16.01;74.28;101183.22;5056412;28;20648;-74
2023/06/28 07:02:19;;;;;;;12.87;6.27;;;16.70;99.90;;;16.02;75.35;101184.91;5056655;28;20214;-74
2023/06/28 07:04:53;;;;;;;10.97;6.13;;;16.70;99.90;;;16.07;76.19;101187.88;5056393;28;20229;-76
2023/06/28 07:07:26;;;;;;;6.70;3.00;;;16.70;99.90;;;16.16;73.66;101179.47;5056125;28;20542;-75
2023/06/28 07:10:00;;;;;;;9.07;3.93;;;16.80;99.90;;;16.24;73.57;101187.50;5056328;28;20191;-76
2023/06/28 07:12:34;;;;;;;8.90;3.33;;;16.90;99.90;;;16.33;73.78;101188.25;5056381;28;20619;-76
2023/06/28 07:15:10;;;;;;;7.70;3.60;;;17.00;99.90;;;16.38;74.79;101190.38;5056084;28;20300;-73
2023/06/28 07:17:43;;;;;;;9.03;3.63;;;17.00;99.90;;;16.44;74.03;101182.38;5056051;28;20668;-74
2023/06/28 07:20:17;;;;;;;10.67;6.10;;;17.10;99.90;;;16.46;74.62;101188.44;5056278;28;20269;-74
2023/06/28 07:22:51;;;;;;;10.10;3.33;;;17.10;99.90;;;16.59;72.17;101182.38;5055927;28;20625;-74
2023/06/28 07:25:24;;;;;;;8.57;3.63;;;17.20;99.40;;;16.64;71.39;101191.59;5055814;28;20229;-74
2023/06/28 07:27:57;;;;;;;7.00;3.33;;;17.30;98.90;;;16.68;69.90;101194.75;5055776;28;20599;-74
2023/06/28 07:30:54;;;;;;;12.70;6.03;;;17.30;98.50;;;16.73;68.25;101195.03;5055879;28;20741;-75
2023/06/28 07:33:28;;;;;;;9.13;3.90;;;17.40;98.40;;;16.76;69.79;101193.81;5055778;28;20241;-74
2023/06/28 07:36:02;;;;;;;5.73;2.83;;;17.40;98.30;;;16.80;69.43;101192.41;5055531;28;20643;-74
2023/06/28 07:38:35;;;;;;;8.23;3.47;;;17.40;97.90;;;16.90;69.45;101195.66;5055900;28;20191;-73
2023/06/28 07:41:09;;;;;;;7.33;2.73;;;17.50;98.60;;;16.92;67.71;101188.22;5055521;28;20205;-74
2023/06/28 07:43:43;;;;;;;8.83;2.70;;;17.60;97.00;;;16.99;65.52;101191.81;5055733;28;20226;-74
2023/06/28 07:46:17;;;;;;;10.93;3.00;;;17.70;96.00;;;17.08;65.83;101190.69;5056330;28;20224;-75
2023/06/28 07:48:56;;;;;;;8.87;3.30;;;17.70;96.10;;;17.09;66.63;101185.06;5054707;28;20278;-74
2023/06/28 07:51:29;;;;;;;8.63;3.87;;;17.70;96.50;;;17.13;65.44;101185.50;5056127;28;20194;-74
2023/06/28 07:54:03;;;;;;;8.13;2.83;;;17.80;96.10;;;17.41;65.12;101189.13;5055585;28;20276;-74
2023/06/28 07:56:36;;;;;;;6.03;2.03;;;18.00;95.50;;;17.42;62.12;101188.13;5055550;28;20280;-74
2023/06/28 07:59:10;;;;;;;7.60;2.53;;;18.10;93.90;;;17.46;61.93;101197.53;5055480;28;20267;-75
2023/06/28 08:01:43;;;;;;;6.40;2.50;;;18.20;93.90;;;17.53;62.92;101193.00;5055173;28;20558;-76
2023/06/28 08:04:19;;;;;;;6.77;2.50;;;18.20;94.40;;;17.57;63.32;101188.88;5055397;28;20226;-76
2023/06/28 08:06:52;;;;;;;6.37;2.70;;;18.20;94.00;;;17.63;63.33;101193.53;5055375;28;20277;-76
2023/06/28 08:09:26;;;;;;;5.20;2.07;;;18.30;94.40;;;17.67;62.06;101181.25;5055512;28;20197;-78
2023/06/28 08:12:00;;;;;;;10.47;3.43;;;18.40;93.60;;;17.77;62.81;101180.13;5056002;28;20284;-78
2023/06/28 08:14:33;;;;;;;3.57;2.43;;;18.40;94.60;;;17.88;58.73;101182.25;5055562;28;20261;-75
2023/06/28 08:17:08;;;;;;;4.37;2.17;;;18.50;92.10;;;17.89;60.35;101187.50;5055278;28;20238;-74
2023/06/28 08:19:42;;;;;;;5.33;2.17;;;18.50;92.40;;;17.95;59.41;101196.69;5055104;28;20277;-74
2023/06/28 08:22:15;;;;;;;6.37;2.23;;;18.60;92.30;;;18.01;60.21;101185.94;5055108;28;20605;-73
2023/06/28 08:24:49;;;;;;;5.10;2.27;;;18.70;92.50;;;18.10;60.41;101186.59;5054639;28;20313;-73
2023/06/28 08:27:22;;;;;;;6.33;2.10;;;18.70;92.50;;;18.19;60.19;101183.53;5054881;28;20218;-72
2023/06/28 08:29:55;;;;;;;5.17;2.40;;;18.90;92.80;;;18.40;58.94;101184.47;5054805;28;20300;-73
2023/06/28 08:32:29;;;;;;;6.20;2.50;;;19.00;92.00;;;18.42;58.50;101180.56;5054808;28;20191;-73
2023/06/28 08:35:02;;;;;;;5.87;2.23;;;18.40;91.50;;;18.41;57.79;101192.41;5054354;28;20234;-74
2023/06/28 08:37:37;;;;;;;5.40;2.10;;;19.00;91.40;;;18.54;57.68;101184.38;5054716;28;20305;-74
2023/06/28 08:40:13;;;;;;;7.73;2.00;;;19.10;90.80;;;18.68;57.29;101194.25;5054435;28;20634;-74
2023/06/28 08:42:50;;;;;;;6.63;2.33;;;19.30;91.00;;;18.68;57.76;101196.13;5054686;28;20272;-74
2023/06/28 08:45:25;;;;;;;4.63;1.93;;;19.40;90.90;;;18.66;57.00;101198.22;5054286;28;20230;-73
2023/06/28 08:48:00;;;;;;;6.17;2.20;;;19.30;90.60;;;18.82;57.13;101188.88;5054515;28;20277;-73
2023/06/28 08:50:44;;;;;;;5.40;2.37;;;19.40;90.40;;;18.82;57.51;101178.88;5054139;28;20186;-73
2023/06/28 08:53:23;;;;;;;5.67;2.10;;;19.40;91.20;;;18.86;56.01;101190.16;5053957;28;20715;-73
2023/06/28 08:55:59;;;;;;;4.93;2.10;;;19.50;89.70;;;18.86;54.37;101187.44;5055036;28;20257;-74
2023/06/28 08:58:35;;;;;;;4.93;2.10;;;19.40;88.10;;;18.86;55.64;101184.72;5054458;28;20243;-73
2023/06/28 09:01:09;;;;;;;4.20;1.83;;;19.50;88.60;;;18.97;56.61;101176.81;5053469;28;20605;-73
2023/06/28 09:03:46;;;;;;;3.73;2.00;;;19.50;90.30;;;19.14;58.00;101172.69;5054208;28;20257;-73
2023/06/28 09:06:21;;;;;;;5.13;2.13;;;19.80;90.80;;;19.23;53.83;101173.34;5054182;28;20221;-74
2023/06/28 09:08:56;;;;;;;6.90;2.17;;;19.80;86.20;;;19.25;51.85;101182.09;5054307;28;20755;-75
2023/06/28 09:11:33;;;;;;;8.03;2.10;;;19.80;84.10;;;19.34;50.96;101175.44;5054092;28;20281;-73
2023/06/28 09:14:08;;;;;;;7.03;2.00;;;19.90;82.90;;;19.38;52.04;101175.88;5053692;28;20308;-74
2023/06/28 09:16:41;;;;;;;5.07;1.77;;;19.90;84.10;;;19.38;50.08;101171.28;5054032;28;20288;-73
2023/06/28 09:19:15;;;;;;;5.60;1.70;;;19.90;82.20;;;19.47;51.06;101161.91;5053970;28;20221;-73
2023/06/28 09:21:48;;;;;;;6.20;2.17;;;20.00;83.60;;;19.57;52.51;101169.63;5054134;28;20290;-73
2023/06/28 09:24:32;;;;;;;6.90;2.10;;;20.10;84.90;;;19.66;51.07;101161.06;5053413;28;20313;-73
2023/06/28 09:27:12;;;;;;;31.17;3.60;;;20.30;83.40;;;19.92;49.76;101168.38;5053598;28;20548;-73
2023/06/28 09:29:58;;;;;;;5.53;1.63;;;20.40;81.30;;;19.84;52.07;101178.63;5053558;28;20218;-72
2023/06/28 09:32:43;;;;;;;3.17;1.83;;;20.40;84.20;;;19.89;50.93;101167.97;5053821;28;20281;-73
2023/06/28 09:35:17;;;;;;;3.90;1.90;;;20.50;82.10;;;20.06;51.40;101177.34;5053335;28;20291;-73
2023/06/28 09:37:57;;;;;;;3.73;1.87;;;20.70;82.80;;;20.10;49.25;101173.97;5053732;28;20237;-72
2023/06/28 09:40:38;;;;;;;8.43;2.90;;;20.70;80.00;;;20.07;48.84;101166.25;5053635;28;20240;-73
2023/06/28 09:43:19;;;;;;;8.47;1.90;;;20.60;79.30;;;20.09;51.40;101187.78;5053455;28;20194;-73
2023/06/28 09:45:55;;;;;;;6.53;2.00;;;20.60;82.60;;;20.17;49.75;101174.00;5053164;28;20701;-73
2023/06/28 09:48:36;;;;;;;6.30;1.93;;;20.70;81.00;;;20.35;47.94;101166.00;5053883;28;20300;-73
2023/06/28 09:51:12;;;;;;;4.93;1.90;;;20.90;78.90;;;20.40;48.68;101168.94;5053486;28;20228;-73
2023/06/28 09:53:58;;;;;;;4.37;1.60;;;20.90;79.80;;;20.43;50.59;101168.50;5052960;28;20707;-73
2023/06/28 09:56:40;;;;;;;3.63;1.57;;;20.90;80.50;;;20.60;48.82;101168.84;5052777;28;20320;-73
2023/06/28 09:59:14;;;;;;;3.53;1.90;;;21.10;78.20;;;20.62;49.57;101173.03;5053328;28;20245;-74
2023/06/28 10:02:08;;;;;;;5.67;2.00;;;21.10;80.00;;;20.74;48.49;101175.91;5053172;28;20658;-73
2023/06/28 10:04:44;;;;;;;6.10;4.13;;;21.30;77.40;;;20.86;49.34;101184.22;5053316;28;20237;-73
2023/06/28 10:07:20;;;;;;;5.33;2.00;;;21.40;79.20;;;20.88;46.92;101182.13;5053177;28;20202;-73
2023/06/28 10:09:54;;;;;;;6.50;1.70;;;21.40;76.50;;;20.96;48.51;101168.28;5053164;28;20243;-73
2023/06/28 10:12:31;;;;;;;6.13;2.20;;;21.40;76.80;;;21.07;47.11;101164.84;5052053;28;20189;-73
2023/06/28 10:15:11;;;;;;;4.33;1.90;;;21.50;77.40;;;21.17;46.75;101171.50;5052696;28;20749;-72
2023/06/28 10:17:46;;;;;;;4.17;1.80;;;21.60;75.70;;;21.21;48.54;101171.91;5052974;28;20209;-73
2023/06/28 10:20:20;;;;;;;5.37;2.10;;;21.70;77.50;;;21.28;48.13;101166.41;5053048;28;20185;-73
2023/06/28 10:22:55;;;;;;;6.77;2.57;;;21.80;76.80;;;21.45;48.34;101162.94;5052746;28;20599;-73
2023/06/28 10:25:31;;;;;;;5.73;2.40;;;21.90;78.70;;;21.50;48.66;101165.00;5053486;28;20190;-74
2023/06/28 10:28:06;;;;;;;4.70;2.20;;;22.00;78.50;;;21.63;45.94;101163.00;5053255;28;20339;-74
2023/06/28 10:30:41;;;;;;;5.73;2.40;;;22.10;75.60;;;21.70;46.31;101163.78;5053841;28;20194;-74
2023/06/28 10:33:18;;;;;;;4.93;2.30;;;22.20;75.00;;;21.59;46.69;101167.22;5052764;28;20190;-72
2023/06/28 10:35:55;;;;;;;5.13;2.30;;;22.10;75.70;;;21.56;45.84;101170.41;5052981;28;20196;-73
2023/06/28 10:38:29;;;;;;;3.77;1.90;;;22.10;74.70;;;21.59;48.18;101169.97;5052874;28;20702;-74
2023/06/28 10:41:03;;;;;;;3.67;2.20;;;22.00;77.90;;;21.70;49.13;101180.16;5052949;28;20214;-73